Time;durP1;ratioP1;P1;durP2;ratioP2;P2;SDS_P1;SDS_P2;PMS_P1;PMS_P2;Temp;Humidity;BMP_temperature;BMP_pressure;BME280_temperature;BME280_humidity;BME280_pressure;Samples;Min_cycle;Max_cycle;Signal;HPM_P1;HPM_P2
2023/07/23 00:02:01;;;;;;;;;;;14.80;99.90;;;;;;5140340;27;19956;-46
2023/07/23 00:04:27;;;;;;;;;;;14.80;99.90;;;;;;5156934;27;19963;-42
2023/07/23 00:06:52;;;;;;;;;;;14.80;99.90;;;;;;5156316;27;19907;-43
2023/07/23 00:09:17;;;;;;;;;;;14.80;99.90;;;;;;5157106;27;20284;-42
2023/07/23 00:11:43;;;;;;;;;;;14.70;99.90;;;;;;5155077;27;19915;-42
2023/07/23 00:14:08;;;;;;;;;;;14.80;99.90;;;;;;5135507;27;20436;-41
2023/07/23 00:16:34;;;;;;;;;;;14.80;99.90;;;;;;5136079;27;20435;-41
2023/07/23 00:18:59;;;;;;;;;;;14.80;99.90;;;;;;5135812;27;19908;-48
2023/07/23 00:21:25;;;;;;;;;;;14.80;99.90;;;;;;5136007;27;20420;-42
2023/07/23 00:23:50;;;;;;;;;;;14.80;99.90;;;;;;5136091;27;19963;-43
2023/07/23 00:26:16;;;;;;;;;;;14.80;99.90;;;;;;5147124;27;19966;-43
2023/07/23 00:28:41;;;;;;;;;;;14.80;99.90;;;;;;5156585;27;19907;-42
2023/07/23 00:31:07;;;;;;;;;;;14.80;99.90;;;;;;5156697;27;19953;-42
2023/07/23 00:33:32;;;;;;;;;;;14.80;99.90;;;;;;5123600;27;20385;-42
2023/07/23 00:35:58;;;;;;;;;;;14.80;99.90;;;;;;5115069;28;19915;-43
2023/07/23 00:38:23;;;;;;;;;;;14.80;99.90;;;;;;5115289;28;20369;-42
2023/07/23 00:40:49;;;;;;;;;;;14.80;99.90;;;;;;5114665;28;19915;-43
2023/07/23 00:43:14;;;;;;;;;;;14.80;99.90;;;;;;5127522;27;20014;-43
2023/07/23 00:45:40;;;;;;;;;;;14.80;99.90;;;;;;5135588;27;19911;-42
2023/07/23 00:48:05;;;;;;;;;;;14.80;99.90;;;;;;5135086;27;19908;-42
2023/07/23 00:50:31;;;;;;;;;;;14.80;99.90;;;;;;5135374;27;19919;-43
2023/07/23 00:52:56;;;;;;;;;;;14.80;99.90;;;;;;5135521;27;19994;-41
2023/07/23 00:55:22;;;;;;;;;;;14.80;99.90;;;;;;5135031;27;20318;-42
2023/07/23 00:57:48;;;;;;;;;;;14.80;99.90;;;;;;5134125;27;19908;-43
2023/07/23 01:00:14;;;;;;;;;;;14.80;99.90;;;;;;5135158;27;19915;-43
2023/07/23 01:02:39;;;;;;;;;;;14.80;99.90;;;;;;5155136;27;19907;-42
2023/07/23 01:05:05;;;;;;;;;;;14.80;99.90;;;;;;5155755;27;19907;-42
2023/07/23 01:07:32;;;;;;;;;;;14.70;99.90;;;;;;5155961;27;19907;-43
2023/07/23 01:09:59;;;;;;;;;;;14.80;99.90;;;;;;5155163;27;19950;-43
2023/07/23 01:12:25;;;;;;;;;;;14.70;99.90;;;;;;5155467;27;19964;-44
2023/07/23 01:14:50;;;;;;;;;;;14.70;99.90;;;;;;5155576;27;19908;-43
2023/07/23 01:17:17;;;;;;;;;;;14.70;99.90;;;;;;5154990;27;19911;-43
2023/07/23 01:19:43;;;;;;;;;;;14.70;99.90;;;;;;5155747;27;20354;-43
2023/07/23 01:22:08;;;;;;;;;;;14.70;99.90;;;;;;5155365;27;19912;-41
2023/07/23 01:24:35;;;;;;;;;;;14.70;99.90;;;;;;5154874;27;19907;-43
2023/07/23 01:27:01;;;;;;;;;;;14.70;99.90;;;;;;5155569;27;19914;-43
2023/07/23 01:29:27;;;;;;;;;;;14.80;99.90;;;;;;5154918;27;19908;-43
2023/07/23 01:31:53;;;;;;;;;;;14.70;99.90;;;;;;5154972;27;20434;-41
2023/07/23 01:34:18;;;;;;;;;;;14.70;99.90;;;;;;5155328;27;19911;-42
2023/07/23 01:36:44;;;;;;;;;;;14.70;99.90;;;;;;5154800;27;19915;-43
2023/07/23 01:39:10;;;;;;;;;;;14.70;99.90;;;;;;5155116;27;19914;-43
2023/07/23 01:41:36;;;;;;;;;;;14.70;99.90;;;;;;5153121;27;19919;-41
2023/07/23 01:44:02;;;;;;;;;;;14.70;99.90;;;;;;5154652;27;20006;-42
2023/07/23 01:46:27;;;;;;;;;;;14.70;99.90;;;;;;5155307;27;19918;-42
2023/07/23 01:48:53;;;;;;;;;;;14.70;99.90;;;;;;5154875;27;19972;-41
2023/07/23 01:51:18;;;;;;;;;;;14.70;99.90;;;;;;5154800;27;20002;-43
2023/07/23 01:53:44;;;;;;;;;;;14.70;99.90;;;;;;5154925;27;19913;-42
2023/07/23 01:56:09;;;;;;;;;;;14.70;99.90;;;;;;5154988;27;19915;-41
2023/07/23 01:58:34;;;;;;;;;;;14.70;99.90;;;;;;5148864;27;20330;-42
2023/07/23 02:01:00;;;;;;;;;;;14.70;99.90;;;;;;5134075;27;19919;-42
2023/07/23 02:03:26;;;;;;;;;;;14.70;99.90;;;;;;5134132;27;20019;-44
2023/07/23 02:06:01;;;;;;;;;;;14.70;99.90;;;;;;5133735;27;19908;-41
2023/07/23 02:08:27;;;;;;;;;;;14.70;99.90;;;;;;5137264;27;20351;-43
2023/07/23 02:11:02;;;;;;;;;;;14.70;99.90;;;;;;5154809;27;19950;-43
2023/07/23 02:13:27;;;;;;;;;;;14.60;99.90;;;;;;5153856;27;20315;-41
2023/07/23 02:15:53;;;;;;;;;;;14.70;99.90;;;;;;5154914;27;19922;-42
2023/07/23 02:18:19;;;;;;;;;;;14.70;99.90;;;;;;5154146;27;19963;-42
2023/07/23 02:20:44;;;;;;;;;;;14.70;99.90;;;;;;5153957;27;19907;-43
2023/07/23 02:23:10;;;;;;;;;;;14.70;99.90;;;;;;5154891;27;20326;-41
2023/07/23 02:25:36;;;;;;;;;;;14.70;99.90;;;;;;5154239;27;19959;-46
2023/07/23 02:28:01;;;;;;;;;;;14.70;99.90;;;;;;5154063;27;19922;-42
2023/07/23 02:30:27;;;;;;;;;;;14.70;99.90;;;;;;5154511;27;20005;-42
2023/07/23 02:32:52;;;;;;;;;;;14.70;99.90;;;;;;5154048;27;19907;-42
2023/07/23 02:35:18;;;;;;;;;;;14.70;99.90;;;;;;5154118;27;19956;-45
2023/07/23 02:37:43;;;;;;;;;;;14.70;99.90;;;;;;5154144;27;19979;-42
2023/07/23 02:40:09;;;;;;;;;;;14.70;99.90;;;;;;5153821;27;20363;-43
2023/07/23 02:42:34;;;;;;;;;;;14.70;99.90;;;;;;5153805;27;19919;-42
2023/07/23 02:45:00;;;;;;;;;;;14.70;99.90;;;;;;5154512;27;19907;-43
2023/07/23 02:47:25;;;;;;;;;;;14.70;99.90;;;;;;5153440;27;20365;-43
2023/07/23 02:49:51;;;;;;;;;;;14.70;99.90;;;;;;5154156;27;19998;-42
2023/07/23 02:52:16;;;;;;;;;;;14.70;99.90;;;;;;5154299;27;19911;-42
2023/07/23 02:54:42;;;;;;;;;;;14.70;99.90;;;;;;5153740;27;19998;-45
2023/07/23 02:57:07;;;;;;;;;;;14.70;99.90;;;;;;5153604;27;20309;-43
2023/07/23 02:59:33;;;;;;;;;;;14.70;99.90;;;;;;5154282;27;19911;-42
2023/07/23 03:01:58;;;;;;;;;;;14.70;99.90;;;;;;5153713;27;19907;-42
2023/07/23 03:04:26;;;;;;;;;;;14.70;99.90;;;;;;5153953;27;19907;-45
2023/07/23 03:06:52;;;;;;;;;;;14.70;99.90;;;;;;5152973;27;19907;-42
2023/07/23 03:09:18;;;;;;;;;;;14.70;99.90;;;;;;5132557;28;19908;-42
2023/07/23 03:11:43;;;;;;;;;;;14.70;99.90;;;;;;5133371;28;20002;-42
2023/07/23 03:14:09;;;;;;;;;;;14.70;99.90;;;;;;5133480;28;19952;-42
2023/07/23 03:16:34;;;;;;;;;;;14.70;99.90;;;;;;5132383;27;20263;-42
2023/07/23 03:19:00;;;;;;;;;;;14.70;99.90;;;;;;5133324;28;19947;-41
2023/07/23 03:21:25;;;;;;;;;;;14.70;99.90;;;;;;5135789;27;20337;-42
2023/07/23 03:23:51;;;;;;;;;;;14.70;99.90;;;;;;5136585;27;19914;-42
2023/07/23 03:26:16;;;;;;;;;;;14.70;99.90;;;;;;5136984;27;19954;-43
2023/07/23 03:28:42;;;;;;;;;;;14.70;99.90;;;;;;5137235;27;19908;-42
2023/07/23 03:31:07;;;;;;;;;;;14.70;99.90;;;;;;5136404;27;19907;-42
2023/07/23 03:33:33;;;;;;;;;;;14.70;99.90;;;;;;5137115;27;19907;-42
2023/07/23 03:35:58;;;;;;;;;;;14.80;99.90;;;;;;5136412;27;20018;-43
2023/07/23 03:38:24;;;;;;;;;;;14.70;99.90;;;;;;5136653;27;19915;-43
2023/07/23 03:40:49;;;;;;;;;;;14.80;99.90;;;;;;5136958;27;19952;-43
2023/07/23 03:43:15;;;;;;;;;;;14.80;99.90;;;;;;5136077;27;19919;-42
2023/07/23 03:45:40;;;;;;;;;;;14.80;99.90;;;;;;5136736;27;19994;-43
2023/07/23 03:48:07;;;;;;;;;;;14.70;99.90;;;;;;5136666;27;19911;-42
2023/07/23 03:50:33;;;;;;;;;;;14.80;99.90;;;;;;5136130;27;20344;-42
2023/07/23 03:53:00;;;;;;;;;;;14.80;99.90;;;;;;5135842;27;20212;-42
2023/07/23 03:55:25;;;;;;;;;;;14.80;99.90;;;;;;5136376;27;20263;-42
2023/07/23 03:57:51;;;;;;;;;;;14.80;99.90;;;;;;5135862;27;19937;-41
2023/07/23 04:00:16;;;;;;;;;;;14.80;99.90;;;;;;5136253;27;19933;-42
2023/07/23 04:02:42;;;;;;;;;;;14.80;99.90;;;;;;5136565;27;19914;-41
2023/07/23 04:05:07;;;;;;;;;;;14.80;99.90;;;;;;5136086;27;19962;-42
2023/07/23 04:07:34;;;;;;;;;;;14.80;99.90;;;;;;5136192;27;19960;-43
2023/07/23 04:09:59;;;;;;;;;;;14.80;99.90;;;;;;5136300;27;20379;-41
2023/07/23 04:12:25;;;;;;;;;;;14.80;99.90;;;;;;5135672;27;19918;-41
2023/07/23 04:14:51;;;;;;;;;;;14.80;99.90;;;;;;5136011;27;19919;-41
2023/07/23 04:17:16;;;;;;;;;;;14.80;99.90;;;;;;5136270;27;19916;-42
2023/07/23 04:19:42;;;;;;;;;;;14.80;99.90;;;;;;5135549;27;19915;-44
2023/07/23 04:22:07;;;;;;;;;;;14.80;99.90;;;;;;5136163;27;19908;-42
2023/07/23 04:24:33;;;;;;;;;;;14.80;99.90;;;;;;5136087;27;20254;-42
2023/07/23 04:26:58;;;;;;;;;;;14.90;99.90;;;;;;5135426;27;19961;-41
2023/07/23 04:29:24;;;;;;;;;;;14.90;99.90;;;;;;5135959;27;19986;-41
2023/07/23 04:31:49;;;;;;;;;;;14.90;99.90;;;;;;5135790;27;20408;-42
2023/07/23 04:34:15;;;;;;;;;;;14.90;99.90;;;;;;5132500;27;19915;-42
2023/07/23 04:36:40;;;;;;;;;;;14.90;99.90;;;;;;5121042;27;19954;-43
2023/07/23 04:39:06;;;;;;;;;;;14.90;99.90;;;;;;5126083;27;19918;-42
2023/07/23 04:41:31;;;;;;;;;;;14.90;99.90;;;;;;5118134;27;19919;-43
2023/07/23 04:43:57;;;;;;;;;;;14.90;99.90;;;;;;5117894;27;19939;-41
2023/07/23 04:46:23;;;;;;;;;;;14.90;99.90;;;;;;5114550;28;20278;-43
2023/07/23 04:48:48;;;;;;;;;;;14.90;99.90;;;;;;5115084;28;19908;-42
2023/07/23 04:51:14;;;;;;;;;;;14.90;99.90;;;;;;5115036;28;19914;-44
2023/07/23 04:53:39;;;;;;;;;;;14.90;99.90;;;;;;5130251;27;19975;-42
2023/07/23 04:56:05;;;;;;;;;;;14.90;99.90;;;;;;5135230;27;19919;-43
2023/07/23 04:58:31;;;;;;;;;;;15.00;99.90;;;;;;5135400;27;19908;-42
2023/07/23 05:00:58;;;;;;;;;;;15.00;99.90;;;;;;5134880;27;19935;-42
2023/07/23 05:03:24;;;;;;;;;;;15.00;99.90;;;;;;5129762;27;19922;-42
2023/07/23 05:05:50;;;;;;;;;;;15.00;99.90;;;;;;5123231;27;19912;-46
2023/07/23 05:08:16;;;;;;;;;;;15.00;99.90;;;;;;5111892;27;19918;-41
2023/07/23 05:10:41;;;;;;;;;;;15.00;99.90;;;;;;5134985;27;20378;-42
2023/07/23 05:13:07;;;;;;;;;;;15.00;99.90;;;;;;5135068;27;19964;-43
2023/07/23 05:15:32;;;;;;;;;;;15.00;99.90;;;;;;5119860;27;20015;-42
2023/07/23 05:17:58;;;;;;;;;;;15.00;99.90;;;;;;5134989;27;19914;-43
2023/07/23 05:20:23;;;;;;;;;;;15.00;99.90;;;;;;5135010;27;19907;-42
2023/07/23 05:22:49;;;;;;;;;;;15.00;99.90;;;;;;5134113;27;20482;-42
2023/07/23 05:25:15;;;;;;;;;;;15.00;99.90;;;;;;5134937;27;19918;-42
2023/07/23 05:27:40;;;;;;;;;;;15.00;99.90;;;;;;5130697;27;19907;-41
2023/07/23 05:30:06;;;;;;;;;;;15.10;99.90;;;;;;5117384;27;20321;-44
2023/07/23 05:32:32;;;;;;;;;;;15.10;99.90;;;;;;5129281;27;19919;-42
2023/07/23 05:34:57;;;;;;;;;;;15.10;99.90;;;;;;5122692;27;20236;-42
2023/07/23 05:37:23;;;;;;;;;;;15.10;99.90;;;;;;5124173;27;19915;-43
2023/07/23 05:39:49;;;;;;;;;;;15.20;99.90;;;;;;5113645;28;19908;-43
2023/07/23 05:42:15;;;;;;;;;;;15.10;99.90;;;;;;5117269;27;20320;-42
2023/07/23 05:44:40;;;;;;;;;;;15.20;99.90;;;;;;5131917;27;19957;-43
2023/07/23 05:47:06;;;;;;;;;;;15.20;99.90;;;;;;5143045;27;19918;-41
2023/07/23 05:49:31;;;;;;;;;;;15.20;99.90;;;;;;5138263;27;19998;-42
2023/07/23 05:52:00;;;;;;;;;;;15.30;99.90;;;;;;5144874;27;20369;-42
2023/07/23 05:54:26;;;;;;;;;;;15.30;99.90;;;;;;5143202;27;19929;-43
2023/07/23 05:56:51;;;;;;;;;;;15.30;99.90;;;;;;5142268;27;19919;-42
2023/07/23 05:59:17;;;;;;;;;;;15.30;99.90;;;;;;5146404;27;20433;-43
2023/07/23 06:01:42;;;;;;;;;;;15.40;99.90;;;;;;5141428;27;19911;-42
2023/07/23 06:04:08;;;;;;;;;;;15.40;99.90;;;;;;5140992;27;19912;-42
2023/07/23 06:06:34;;;;;;;;;;;15.50;99.90;;;;;;5147495;27;19934;-42
2023/07/23 06:08:59;;;;;;;;;;;15.50;99.90;;;;;;5136575;27;19919;-42
2023/07/23 06:11:25;;;;;;;;;;;15.50;99.90;;;;;;5137459;27;19964;-42
2023/07/23 06:13:50;;;;;;;;;;;15.60;99.90;;;;;;5129184;27;19958;-41
2023/07/23 06:16:15;;;;;;;;;;;15.60;99.90;;;;;;5139074;27;20282;-42
2023/07/23 06:18:41;;;;;;;;;;;15.70;99.90;;;;;;5141405;27;20072;-43
2023/07/23 06:21:06;;;;;;;;;;;15.70;99.90;;;;;;5129766;27;19946;-42
2023/07/23 06:23:33;;;;;;;;;;;15.70;99.90;;;;;;5134643;27;19976;-43
2023/07/23 06:25:58;;;;;;;;;;;15.70;99.90;;;;;;5141622;27;19911;-42
2023/07/23 06:28:24;;;;;;;;;;;15.70;99.90;;;;;;5153819;27;19917;-42
2023/07/23 06:30:53;;;;;;;;;;;15.80;99.90;;;;;;5154093;27;19918;-42
2023/07/23 06:33:18;;;;;;;;;;;15.80;99.90;;;;;;5153647;27;19908;-42
2023/07/23 06:35:44;;;;;;;;;;;15.90;99.90;;;;;;5154175;27;19916;-42
2023/07/23 06:38:10;;;;;;;;;;;15.90;99.90;;;;;;5154322;27;19968;-44
2023/07/23 06:40:35;;;;;;;;;;;15.90;99.90;;;;;;5148552;27;19917;-44
2023/07/23 06:43:01;;;;;;;;;;;15.90;99.90;;;;;;5154184;27;19919;-42
2023/07/23 06:45:27;;;;;;;;;;;16.00;99.90;;;;;;5154328;27;20324;-42
2023/07/23 06:47:52;;;;;;;;;;;16.00;99.90;;;;;;5153476;27;20388;-42
2023/07/23 06:50:18;;;;;;;;;;;16.00;99.90;;;;;;5149226;27;20358;-43
2023/07/23 06:52:44;;;;;;;;;;;16.10;99.90;;;;;;5130200;28;19919;-43
2023/07/23 06:55:09;;;;;;;;;;;16.10;99.90;;;;;;5120769;27;19939;-42
2023/07/23 06:57:35;;;;;;;;;;;16.10;99.90;;;;;;5122741;27;19916;-42
2023/07/23 07:00:00;;;;;;;;;;;16.10;99.90;;;;;;5137156;27;19994;-42
2023/07/23 07:02:26;;;;;;;;;;;16.10;99.90;;;;;;5134417;27;20309;-43
2023/07/23 07:04:51;;;;;;;;;;;16.10;99.90;;;;;;5133818;27;20427;-43
2023/07/23 07:07:17;;;;;;;;;;;16.20;99.90;;;;;;5138450;27;19950;-42
2023/07/23 07:09:42;;;;;;;;;;;16.10;99.90;;;;;;5136482;27;20316;-43
2023/07/23 07:12:08;;;;;;;;;;;16.10;99.90;;;;;;5136883;27;20006;-43
2023/07/23 07:14:33;;;;;;;;;;;16.10;99.90;;;;;;5136419;27;19960;-43
2023/07/23 07:16:59;;;;;;;;;;;16.10;99.90;;;;;;5136566;27;19985;-42
2023/07/23 07:19:24;;;;;;;;;;;16.20;99.90;;;;;;5122301;27;20421;-41
2023/07/23 07:21:50;;;;;;;;;;;16.20;99.90;;;;;;5127235;27;19969;-41
2023/07/23 07:24:17;;;;;;;;;;;16.10;99.90;;;;;;5126994;27;20412;-42
2023/07/23 07:26:43;;;;;;;;;;;16.20;99.90;;;;;;5122282;27;19923;-43
2023/07/23 07:29:08;;;;;;;;;;;16.10;99.90;;;;;;5117567;27;20312;-43
2023/07/23 07:31:34;;;;;;;;;;;16.20;99.90;;;;;;5120509;27;19917;-42
2023/07/23 07:33:59;;;;;;;;;;;16.20;99.90;;;;;;5135194;27;20200;-43
2023/07/23 07:36:25;;;;;;;;;;;16.20;99.90;;;;;;5134836;27;19958;-43
2023/07/23 07:38:50;;;;;;;;;;;16.20;99.90;;;;;;5129099;27;19928;-43
2023/07/23 07:41:16;;;;;;;;;;;16.30;99.90;;;;;;5134900;27;19927;-42
2023/07/23 07:43:41;;;;;;;;;;;16.30;99.90;;;;;;5140248;27;19911;-43
2023/07/23 07:46:08;;;;;;;;;;;16.30;99.90;;;;;;5136018;27;19919;-42
2023/07/23 07:48:35;;;;;;;;;;;16.30;99.90;;;;;;5131537;27;20010;-42
2023/07/23 07:51:02;;;;;;;;;;;16.30;99.90;;;;;;5123383;27;19957;-42
2023/07/23 07:53:28;;;;;;;;;;;16.30;99.90;;;;;;5125452;27;19916;-42
2023/07/23 07:55:54;;;;;;;;;;;16.30;99.90;;;;;;5118823;27;19919;-42
2023/07/23 07:58:24;;;;;;;;;;;16.30;99.90;;;;;;5125375;27;19961;-43
2023/07/23 08:01:08;;;;;;;;;;;16.20;99.90;;;;;;5117843;27;19931;-42
2023/07/23 08:03:34;;;;;;;;;;;16.20;99.90;;;;;;5117587;27;19919;-42
2023/07/23 08:05:59;;;;;;;;;;;16.20;99.90;;;;;;5122243;27;20277;-42
2023/07/23 08:08:26;;;;;;;;;;;16.20;99.90;;;;;;5121991;27;20381;-42
2023/07/23 08:10:56;;;;;;;;;;;16.10;99.90;;;;;;5135677;27;19915;-42
2023/07/23 08:13:22;;;;;;;;;;;16.10;99.90;;;;;;5136240;27;20297;-42
2023/07/23 08:15:48;;;;;;;;;;;16.10;99.90;;;;;;5135723;27;20404;-41
2023/07/23 08:18:16;;;;;;;;;;;16.00;99.90;;;;;;5135233;27;19908;-41
2023/07/23 08:20:42;;;;;;;;;;;16.10;99.90;;;;;;5135223;27;19956;-42
2023/07/23 08:23:08;;;;;;;;;;;16.10;99.90;;;;;;5136044;27;19911;-41
2023/07/23 08:25:34;;;;;;;;;;;16.20;99.90;;;;;;5129881;27;19914;-42
2023/07/23 08:28:01;;;;;;;;;;;16.20;99.90;;;;;;5124689;27;19918;-43
2023/07/23 08:30:27;;;;;;;;;;;16.20;99.90;;;;;;5115211;28;19916;-42
2023/07/23 08:32:56;;;;;;;;;;;16.20;99.90;;;;;;5122780;27;19943;-41
2023/07/23 08:35:25;;;;;;;;;;;16.30;99.90;;;;;;5135608;27;20251;-42
2023/07/23 08:37:50;;;;;;;;;;;16.30;99.90;;;;;;5116665;27;19915;-41
2023/07/23 08:40:17;;;;;;;;;;;16.30;99.90;;;;;;5122403;27;19918;-41
2023/07/23 08:43:05;;;;;;;;;;;16.30;99.90;;;;;;5134876;27;20362;-42
2023/07/23 08:45:31;;;;;;;;;;;16.40;99.90;;;;;;5135251;27;19976;-41
2023/07/23 08:48:12;;;;;;;;;;;16.50;99.90;;;;;;5135396;27;19999;-41
2023/07/23 08:50:39;;;;;;;;;;;16.50;99.90;;;;;;5135520;27;19972;-42
2023/07/23 08:53:05;;;;;;;;;;;16.50;99.90;;;;;;5134391;27;19907;-42
2023/07/23 08:55:30;;;;;;;;;;;16.50;99.90;;;;;;5135315;27;19916;-41
2023/07/23 08:57:56;;;;;;;;;;;16.50;99.90;;;;;;5135510;27;19908;-42
2023/07/23 09:00:27;;;;;;;;;;;16.40;99.90;;;;;;5125726;27;20381;-43
2023/07/23 09:02:53;;;;;;;;;;;16.40;99.90;;;;;;5123923;27;19930;-42
2023/07/23 09:05:19;;;;;;;;;;;16.40;99.90;;;;;;5135469;27;19914;-43
2023/07/23 09:07:46;;;;;;;;;;;16.40;99.90;;;;;;5121806;27;19912;-43
2023/07/23 09:10:11;;;;;;;;;;;16.40;99.90;;;;;;5119480;27;19912;-43
2023/07/23 09:12:40;;;;;;;;;;;16.30;99.90;;;;;;5114213;28;20064;-43
2023/07/23 09:15:06;;;;;;;;;;;16.30;99.90;;;;;;5113673;28;19912;-44
2023/07/23 09:17:32;;;;;;;;;;;16.30;99.90;;;;;;5114063;28;20393;-43
2023/07/23 09:19:57;;;;;;;;;;;16.30;99.90;;;;;;5114167;28;20332;-42
2023/07/23 09:22:22;;;;;;;;;;;16.20;99.90;;;;;;5113642;28;19977;-43
2023/07/23 09:24:48;;;;;;;;;;;16.20;99.90;;;;;;5114221;28;19908;-44
2023/07/23 09:27:13;;;;;;;;;;;16.10;99.90;;;;;;5115229;27;19912;-43
2023/07/23 09:29:41;;;;;;;;;;;16.10;99.90;;;;;;5113606;28;20002;-43
2023/07/23 09:32:33;;;;;;;;;;;16.20;99.90;;;;;;5125172;27;19911;-43
2023/07/23 09:34:59;;;;;;;;;;;16.20;99.90;;;;;;5120391;27;19960;-42
2023/07/23 09:37:28;;;;;;;;;;;16.20;99.90;;;;;;5134161;27;20319;-43
2023/07/23 09:39:57;;;;;;;;;;;16.30;99.90;;;;;;5129276;27;20389;-42
2023/07/23 09:42:23;;;;;;;;;;;16.30;99.90;;;;;;5115837;27;19945;-41
2023/07/23 09:44:49;;;;;;;;;;;16.40;99.90;;;;;;5112869;28;20324;-46
2023/07/23 09:47:14;;;;;;;;;;;16.30;99.90;;;;;;5128327;27;19947;-45
2023/07/23 09:49:41;;;;;;;;;;;16.40;99.90;;;;;;5132800;27;19907;-43
2023/07/23 09:52:07;;;;;;;;;;;16.40;99.90;;;;;;5124504;27;19911;-43
2023/07/23 09:54:34;;;;;;;;;;;16.40;99.90;;;;;;5133252;27;19961;-42
2023/07/23 09:57:01;;;;;;;;;;;16.30;99.90;;;;;;5132905;27;20029;-43
2023/07/23 09:59:27;;;;;;;;;;;16.30;99.90;;;;;;5133386;27;20460;-43
2023/07/23 10:01:54;;;;;;;;;;;16.40;99.90;;;;;;5133150;27;20278;-44
2023/07/23 10:04:21;;;;;;;;;;;16.40;99.90;;;;;;5132217;27;19907;-43
2023/07/23 10:06:48;;;;;;;;;;;16.40;99.90;;;;;;5133347;27;19994;-43
2023/07/23 10:09:15;;;;;;;;;;;16.40;99.90;;;;;;5133220;27;19908;-42
2023/07/23 10:11:40;;;;;;;;;;;16.40;99.90;;;;;;5132673;27;19982;-42
2023/07/23 10:14:06;;;;;;;;;;;16.40;99.90;;;;;;5132862;27;20374;-43
2023/07/23 10:16:39;;;;;;;;;;;16.50;99.90;;;;;;5132665;27;19919;-43
2023/07/23 10:19:04;;;;;;;;;;;16.50;99.90;;;;;;5132464;27;19907;-43
2023/07/23 10:21:31;;;;;;;;;;;16.50;99.90;;;;;;5127692;27;19915;-43
2023/07/23 10:23:57;;;;;;;;;;;16.50;99.90;;;;;;5123628;27;19912;-43
2023/07/23 10:26:28;;;;;;;;;;;16.50;99.90;;;;;;5095194;28;20344;-43
2023/07/23 10:29:13;;;;;;;;;;;16.50;99.90;;;;;;5115855;27;19916;-46
2023/07/23 10:31:39;;;;;;;;;;;16.50;99.90;;;;;;5118286;27;19918;-42
2023/07/23 10:34:25;;;;;;;;;;;16.50;99.90;;;;;;5121234;27;20010;-44
2023/07/23 10:37:10;;;;;;;;;;;16.60;99.90;;;;;;5123529;27;19927;-43
2023/07/23 10:39:40;;;;;;;;;;;16.60;99.90;;;;;;5113743;27;20320;-44
2023/07/23 10:42:05;;;;;;;;;;;16.60;99.90;;;;;;5119660;28;19919;-43
2023/07/23 10:44:31;;;;;;;;;;;16.60;99.90;;;;;;5118885;28;19939;-42
2023/07/23 10:46:57;;;;;;;;;;;16.60;99.90;;;;;;5122837;28;19969;-43
2023/07/23 10:49:24;;;;;;;;;;;16.60;99.90;;;;;;5128614;28;19911;-42
2023/07/23 10:51:53;;;;;;;;;;;16.60;99.90;;;;;;5128434;27;19911;-44
2023/07/23 10:54:19;;;;;;;;;;;16.70;99.90;;;;;;5122786;28;20362;-42
2023/07/23 10:56:46;;;;;;;;;;;16.60;99.90;;;;;;5126394;28;19919;-43
2023/07/23 10:59:30;;;;;;;;;;;16.70;99.90;;;;;;5127751;28;19918;-44
2023/07/23 11:01:55;;;;;;;;;;;16.70;99.90;;;;;;5133499;28;19994;-42
2023/07/23 11:04:25;;;;;;;;;;;16.70;99.90;;;;;;5123922;28;20358;-43
2023/07/23 11:06:53;;;;;;;;;;;16.70;99.90;;;;;;5125894;28;19912;-43
2023/07/23 11:09:23;;;;;;;;;;;16.70;99.90;;;;;;5119866;28;19912;-43
2023/07/23 11:11:49;;;;;;;;;;;16.70;99.90;;;;;;5127444;27;19915;-42
2023/07/23 11:14:16;;;;;;;;;;;16.70;99.90;;;;;;5114580;28;20303;-44
2023/07/23 11:16:42;;;;;;;;;;;16.70;99.90;;;;;;5112721;28;19984;-43
2023/07/23 11:19:07;;;;;;;;;;;16.70;99.90;;;;;;5112700;28;20266;-43
2023/07/23 11:21:33;;;;;;;;;;;16.70;99.90;;;;;;5112557;28;19908;-43
2023/07/23 11:23:59;;;;;;;;;;;16.70;99.90;;;;;;5127589;28;19911;-44
2023/07/23 11:26:25;;;;;;;;;;;16.70;99.90;;;;;;5133126;28;19907;-42
2023/07/23 11:28:51;;;;;;;;;;;16.70;99.90;;;;;;5132492;28;19912;-42
2023/07/23 11:31:17;;;;;;;;;;;16.70;99.90;;;;;;5133110;28;20006;-42
2023/07/23 11:33:42;;;;;;;;;;;16.70;99.90;;;;;;5113871;28;20012;-42
2023/07/23 11:36:09;;;;;;;;;;;16.80;99.90;;;;;;5113783;28;19930;-42
2023/07/23 11:38:34;;;;;;;;;;;16.80;99.90;;;;;;5133749;27;20369;-42
2023/07/23 11:41:00;;;;;;;;;;;16.80;99.90;;;;;;5122855;27;20018;-43
2023/07/23 11:43:26;;;;;;;;;;;16.90;99.90;;;;;;5122072;27;19953;-42
2023/07/23 11:45:52;;;;;;;;;;;16.90;99.90;;;;;;5118686;27;19911;-41
2023/07/23 11:48:18;;;;;;;;;;;16.90;99.90;;;;;;5119890;27;19916;-42
2023/07/23 11:50:45;;;;;;;;;;;16.90;99.90;;;;;;5120328;27;19919;-44
2023/07/23 11:53:11;;;;;;;;;;;16.90;99.90;;;;;;5121182;27;19919;-42
2023/07/23 11:55:36;;;;;;;;;;;16.90;99.90;;;;;;5121651;27;19924;-41
2023/07/23 11:58:02;;;;;;;;;;;16.90;99.90;;;;;;5122872;27;19912;-43
2023/07/23 12:00:39;;;;;;;;;;;16.90;99.90;;;;;;5124124;27;20541;-43
2023/07/23 12:03:08;;;;;;;;;;;17.00;99.90;;;;;;5122858;27;19940;-43
2023/07/23 12:05:37;;;;;;;;;;;17.00;99.90;;;;;;5120426;27;19916;-42
2023/07/23 12:08:04;;;;;;;;;;;17.00;99.90;;;;;;5136549;27;20239;-42
2023/07/23 12:10:29;;;;;;;;;;;17.00;99.90;;;;;;5128695;27;19911;-41
2023/07/23 12:12:55;;;;;;;;;;;17.00;99.90;;;;;;5130819;27;19917;-42
2023/07/23 12:15:20;;;;;;;;;;;17.10;99.90;;;;;;5135992;27;20278;-43
2023/07/23 12:17:46;;;;;;;;;;;17.10;99.90;;;;;;5135372;27;19950;-42
2023/07/23 12:20:15;;;;;;;;;;;17.10;99.90;;;;;;5129806;27;19965;-42
2023/07/23 12:22:48;;;;;;;;;;;17.10;99.90;;;;;;5135653;27;19911;-43
2023/07/23 12:25:13;;;;;;;;;;;17.10;99.90;;;;;;5134205;27;19935;-42
2023/07/23 12:27:39;;;;;;;;;;;17.10;99.90;;;;;;5121275;27;20630;-42
2023/07/23 12:30:05;;;;;;;;;;;17.10;99.90;;;;;;5126835;27;19912;-41
2023/07/23 12:32:30;;;;;;;;;;;17.20;99.90;;;;;;5120444;27;20044;-42
2023/07/23 12:34:55;;;;;;;;;;;17.20;99.90;;;;;;5123595;27;19915;-42
2023/07/23 12:37:21;;;;;;;;;;;17.20;99.90;;;;;;5119103;27;19926;-43
2023/07/23 12:39:47;;;;;;;;;;;17.30;99.90;;;;;;5114799;28;19908;-42
2023/07/23 12:42:14;;;;;;;;;;;17.30;99.90;;;;;;5115058;28;20019;-43
2023/07/23 12:44:40;;;;;;;;;;;17.30;99.90;;;;;;5114436;28;19908;-42
2023/07/23 12:47:06;;;;;;;;;;;17.30;99.90;;;;;;5117480;27;20009;-43
2023/07/23 12:49:31;;;;;;;;;;;17.30;99.90;;;;;;5135405;27;19980;-42
2023/07/23 12:51:57;;;;;;;;;;;17.30;99.90;;;;;;5135779;27;19922;-43
2023/07/23 12:54:23;;;;;;;;;;;17.30;99.90;;;;;;5136411;27;20311;-42
2023/07/23 12:56:48;;;;;;;;;;;17.30;99.90;;;;;;5135907;27;19942;-42
2023/07/23 12:59:14;;;;;;;;;;;17.50;99.90;;;;;;5115171;28;19915;-42
2023/07/23 13:01:41;;;;;;;;;;;17.60;99.90;;;;;;5115760;28;20452;-43
2023/07/23 13:04:06;;;;;;;;;;;17.90;99.90;;;;;;5115475;28;20003;-42
2023/07/23 13:06:32;;;;;;;;;;;18.10;99.90;;;;;;5127550;27;20014;-42
2023/07/23 13:08:57;;;;;;;;;;;18.50;99.90;;;;;;5130785;27;20019;-45
2023/07/23 13:11:23;;;;;;;;;;;19.00;99.90;;;;;;5115288;28;20350;-42
2023/07/23 13:13:49;;;;;;;;;;;19.20;99.90;;;;;;5122194;27;20406;-42
2023/07/23 13:16:14;;;;;;;;;;;19.20;99.90;;;;;;5122516;27;20406;-43
2023/07/23 13:18:39;;;;;;;;;;;19.10;99.90;;;;;;5120087;27;19908;-42
2023/07/23 13:21:05;;;;;;;;;;;19.00;99.90;;;;;;5122754;27;19920;-43
2023/07/23 13:23:31;;;;;;;;;;;18.90;99.90;;;;;;5122088;27;20052;-42
2023/07/23 13:25:56;;;;;;;;;;;18.80;99.90;;;;;;5135966;27;19955;-42
2023/07/23 13:28:22;;;;;;;;;;;18.70;99.90;;;;;;5130129;27;19918;-42
2023/07/23 13:30:49;;;;;;;;;;;18.60;99.90;;;;;;5127035;27;20667;-42
2023/07/23 13:33:15;;;;;;;;;;;18.50;99.90;;;;;;5124187;27;20484;-43
2023/07/23 13:35:40;;;;;;;;;;;18.50;99.90;;;;;;5113770;28;19919;-44
2023/07/23 13:38:06;;;;;;;;;;;18.50;99.90;;;;;;5114733;28;19931;-43
2023/07/23 13:40:31;;;;;;;;;;;18.70;99.90;;;;;;5114855;28;20243;-43
2023/07/23 13:42:57;;;;;;;;;;;18.90;99.90;;;;;;5112217;27;20282;-41
2023/07/23 13:45:23;;;;;;;;;;;19.00;99.90;;;;;;5115102;27;19938;-43
2023/07/23 13:47:49;;;;;;;;;;;19.10;99.90;;;;;;5116378;27;19934;-42
2023/07/23 13:50:15;;;;;;;;;;;19.30;99.90;;;;;;5130536;27;19923;-43
2023/07/23 13:52:40;;;;;;;;;;;19.30;99.90;;;;;;5135179;27;20016;-42
2023/07/23 13:55:06;;;;;;;;;;;19.30;99.90;;;;;;5126103;27;19915;-43
2023/07/23 13:57:32;;;;;;;;;;;19.30;99.90;;;;;;5126276;27;20327;-43
2023/07/23 13:59:57;;;;;;;;;;;19.30;99.90;;;;;;5115179;27;19916;-42
2023/07/23 14:02:23;;;;;;;;;;;19.40;99.90;;;;;;5125403;27;19914;-42
2023/07/23 14:04:48;;;;;;;;;;;19.40;99.90;;;;;;5125308;27;19915;-42
2023/07/23 14:07:14;;;;;;;;;;;19.40;99.90;;;;;;5121192;27;20274;-42
2023/07/23 14:09:39;;;;;;;;;;;19.50;99.90;;;;;;5117846;27;19970;-43
2023/07/23 14:12:05;;;;;;;;;;;19.60;99.90;;;;;;5116570;27;19912;-43